Fort Meade, MD (20755)

11:43 PM EST on January 25, 2015 (GMT -0500)
Seven Oaks | Change Station
CLOSE
Current Station
Personal Weather Station
Location: Odenton, MD
Elevation: 154 ft
Nearby Weather Stations

Elev 154 ft 39.11 °N, 76.71 °W | Updated 10 minutes ago

Overcast
Overcast
41.9 °F
Feels Like 42 °F
N
0.7
Wind Variable Wind from East
Gusts 2.2 mph

Today
High -- | Low -- °F
--% Chance of Precip.
Yesterday
High -- | Low -- °F
Precip. -- in
7:19 AM 5:19 PM
Waxing Crescent, 39% visible
Pressure 29.89 in
Visibility 10.0 miles
Clouds Overcast 5000 ft
Windchill 42 °F
Dew Point 32 °F
Humidity 69%
Rainfall 0.00 in
Snow Depth Not available.
UV 0 out of 12
Pollen .10 out of 12
Air Quality Not available.
Flu Activity Not available.
METAR KFME 260436Z AUTO 09005KT 10SM OVC050 04/00 A2989 RMK AO1

More Conditions Fewer Conditions

Pressure 29.89 in
Visibility 10.0 miles
Clouds Overcast 5000 ft
Windchill 42 °F
Dew Point 32 °F
Humidity 69%
Rainfall 0.00 in
Snow Depth Not available.
UV 0 out of 12
Pollen .10 out of 12
Air Quality Not available.
Flu Activity Not available.
METAR KFME 260436Z AUTO 09005KT 10SM OVC050 04/00 A2989 RMK AO1

More Conditions Fewer Conditions

10-Day Weather Forecast

Almanac

Astronomy

Jan. 25, 2015 Rise Set
Actual Time
Civil Twilight
Nautical Twilight
Astronomical Twilight
Moon
Length of Visible Light
Length of Day
Tomorrow will be .
, % of the Moon is Illuminated

Today's Extremes

State Highs State Lows

Community

WunderPhotos

Upload Photos

1,790,139 photos uploaded!

WunderBlogs® & News

Nearby

Air Quality

  Air Quality AQ Index Pollutant
Not available.

Snow Depth

Station Depth Elevation

Earthquake Activity

City Distance Mag. Time & Date
Minimum magnitude displayed is 2.5.

Coastal Water Temperatures

Place Temperature

Nearby Weather Stations